Accomac, Virginia
Current Conditions -  °F | °C
As of 3:15 PM on Monday 24 Nov 2014 (Local Time) from KMFV Reporting Station
Overcast Overcast  
Wind Chill: 19°   Ceiling: 9000
Heat Index: 19°   Visibility: 10mi
Dew Point: 13°   Wind: 8mph
Humidity: 68%   Direction: 170°S
Pressure: 29.75"   Gusts: NA
Location:  37.72°N, 75.67°W
Report Text: KMFV 242015Z AUTO 17007KT 10SM OVC090 19/13 A2975 RMK AO2
Loading
Personal Weather Stations






























Interactive Weather Map New forecast layout! Learn more

10-Day Weather Forecast

Advertisements
Track Severe Weather on mobile